createdAt,value
2023-03-04T00:02:31.381Z,1.90
2023-03-04T00:05:06.444Z,1.90
2023-03-04T00:07:46.429Z,1.90
2023-03-04T00:10:29.460Z,1.90
2023-03-04T00:13:13.788Z,1.90
2023-03-04T00:16:05.868Z,1.90
2023-03-04T00:18:50.781Z,2.00
2023-03-04T00:21:28.184Z,2.00
2023-03-04T00:24:02.433Z,2.00
2023-03-04T00:26:36.501Z,2.00
2023-03-04T00:29:12.040Z,2.10
2023-03-04T00:31:45.633Z,2.10
2023-03-04T00:34:23.237Z,2.10
2023-03-04T00:40:17.304Z,2.10
2023-03-04T00:48:43.058Z,2.10
2023-03-04T00:51:19.222Z,2.00
2023-03-04T00:53:59.723Z,2.00
2023-03-04T00:56:44.814Z,1.90
2023-03-04T00:59:17.317Z,1.80
2023-03-04T01:02:08.154Z,1.80
2023-03-04T01:04:48.348Z,1.80
2023-03-04T01:07:24.259Z,1.70
2023-03-04T01:10:07.735Z,1.70
2023-03-04T01:12:53.947Z,1.60
2023-03-04T01:15:30.429Z,1.50
2023-03-04T01:18:13.224Z,1.50
2023-03-04T01:20:45.929Z,1.60
2023-03-04T01:23:23.387Z,1.60
2023-03-04T01:26:04.657Z,1.70
2023-03-04T01:28:47.115Z,1.60
2023-03-04T01:31:23.121Z,1.60
2023-03-04T01:34:13.826Z,1.60
2023-03-04T01:37:04.925Z,1.60
2023-03-04T01:39:45.616Z,1.60
2023-03-04T01:42:26.588Z,1.50
2023-03-04T01:45:00.883Z,1.50
2023-03-04T01:47:51.284Z,1.50
2023-03-04T01:50:32.659Z,1.50
2023-03-04T01:53:06.444Z,1.60
2023-03-04T01:55:46.266Z,1.60
2023-03-04T01:58:25.470Z,1.60
2023-03-04T02:01:05.358Z,1.60
2023-03-04T02:03:39.208Z,1.60
2023-03-04T02:06:12.987Z,1.60
2023-03-04T02:11:47.391Z,1.60
2023-03-04T02:14:25.780Z,1.60
2023-03-04T02:17:08.331Z,1.60
2023-03-04T02:19:45.309Z,1.70
2023-03-04T02:22:22.262Z,1.70
2023-03-04T02:25:02.265Z,1.70
2023-03-04T02:27:37.781Z,1.80
2023-03-04T02:30:14.751Z,1.90
2023-03-04T02:35:47.572Z,1.90
2023-03-04T02:38:21.528Z,1.90
2023-03-04T02:43:58.270Z,1.90
2023-03-04T02:46:36.244Z,1.90
2023-03-04T02:49:12.673Z,1.90
2023-03-04T02:54:30.426Z,2.00
2023-03-04T02:57:05.863Z,1.90
2023-03-04T02:59:51.718Z,1.90
2023-03-04T03:02:29.910Z,2.00
2023-03-04T03:05:07.393Z,2.10
2023-03-04T03:07:41.955Z,2.10
2023-03-04T03:13:01.524Z,2.00
2023-03-04T03:15:51.943Z,2.10
2023-03-04T03:18:26.595Z,2.10
2023-03-04T03:23:57.143Z,2.20
2023-03-04T03:26:38.971Z,2.30
2023-03-04T03:29:11.867Z,2.30
2023-03-04T03:31:57.629Z,2.40
2023-03-04T03:34:38.760Z,2.40
2023-03-04T03:37:09.028Z,2.50
2023-03-04T03:39:47.731Z,2.50
2023-03-04T03:42:23.869Z,2.60
2023-03-04T03:45:02.349Z,2.60
2023-03-04T03:47:42.261Z,2.60
2023-03-04T03:50:29.311Z,2.60
2023-03-04T03:53:09.955Z,2.60
2023-03-04T03:55:42.062Z,2.60
2023-03-04T04:01:15.760Z,2.70
2023-03-04T04:03:52.450Z,2.70
2023-03-04T04:06:25.634Z,2.70
2023-03-04T04:08:58.421Z,2.70
2023-03-04T04:12:03.711Z,2.70
2023-03-04T04:14:45.792Z,2.80
2023-03-04T04:17:36.509Z,2.80
2023-03-04T04:20:26.298Z,2.70
2023-03-04T04:23:00.093Z,2.70
2023-03-04T04:28:41.380Z,2.70
2023-03-04T04:31:28.508Z,2.60
2023-03-04T04:34:14.012Z,2.60
2023-03-04T04:37:09.345Z,2.60
2023-03-04T04:40:08.183Z,2.50
2023-03-04T04:42:49.029Z,2.50
2023-03-04T04:45:30.425Z,2.50
2023-03-04T04:48:14.115Z,2.60
2023-03-04T04:50:59.167Z,2.50
2023-03-04T04:53:36.042Z,2.50
2023-03-04T04:56:26.603Z,2.50
2023-03-04T04:59:13.139Z,2.50
2023-03-04T05:01:48.251Z,2.60
2023-03-04T05:04:20.407Z,2.60
2023-03-04T05:07:00.340Z,2.50
2023-03-04T05:09:34.900Z,2.50
2023-03-04T05:12:12.503Z,2.50
2023-03-04T05:14:56.673Z,2.50
2023-03-04T05:17:29.331Z,2.50
2023-03-04T05:20:07.015Z,2.60
2023-03-04T05:25:37.033Z,2.70
2023-03-04T05:28:21.623Z,2.70
2023-03-04T05:31:06.320Z,2.70
2023-03-04T05:33:51.874Z,2.70
2023-03-04T05:36:24.193Z,2.70
2023-03-04T05:38:58.346Z,2.60
2023-03-04T05:41:35.224Z,2.70
2023-03-04T05:44:20.474Z,2.70
2023-03-04T05:47:03.563Z,2.70
2023-03-04T05:49:41.074Z,2.70
2023-03-04T05:52:13.347Z,2.70
2023-03-04T05:55:02.265Z,2.70
2023-03-04T05:58:10.265Z,2.70
2023-03-04T06:01:03.714Z,2.70
2023-03-04T06:03:35.159Z,2.70
2023-03-04T06:06:08.034Z,2.70
2023-03-04T06:08:40.199Z,2.70
2023-03-04T06:11:16.151Z,2.70
2023-03-04T06:13:49.064Z,2.80
2023-03-04T06:16:34.915Z,2.70
2023-03-04T06:19:25.655Z,2.70
2023-03-04T06:21:56.075Z,2.80
2023-03-04T06:24:50.115Z,2.80
2023-03-04T06:27:30.932Z,2.80
2023-03-04T06:30:18.894Z,2.90
2023-03-04T06:32:54.624Z,2.90
2023-03-04T06:35:27.796Z,2.90
2023-03-04T06:38:00.036Z,2.90
2023-03-04T06:40:44.034Z,3.00
2023-03-04T06:43:20.863Z,3.00
2023-03-04T06:45:54.462Z,3.10
2023-03-04T06:48:56.371Z,3.10
2023-03-04T06:51:43.399Z,3.10
2023-03-04T06:54:35.066Z,3.10
2023-03-04T06:57:23.761Z,3.10
2023-03-04T06:59:59.221Z,3.20
2023-03-04T07:02:30.964Z,3.20
2023-03-04T07:05:05.641Z,3.30
2023-03-04T07:07:50.463Z,3.30
2023-03-04T07:10:29.015Z,3.30
2023-03-04T07:13:02.907Z,3.30
2023-03-04T07:15:40.991Z,3.30
2023-03-04T07:18:12.843Z,3.40
2023-03-04T07:23:54.282Z,3.40
2023-03-04T07:26:54.318Z,3.50
2023-03-04T07:29:42.516Z,3.50
2023-03-04T07:32:20.072Z,3.50
2023-03-04T07:38:06.230Z,3.60
2023-03-04T07:40:51.944Z,3.60
2023-03-04T07:43:26.386Z,3.70
2023-03-04T07:46:16.996Z,3.70
2023-03-04T07:49:14.200Z,3.80
2023-03-04T07:51:46.114Z,3.80
2023-03-04T07:54:32.518Z,3.90
2023-03-04T07:57:09.400Z,3.90
2023-03-04T07:59:54.564Z,4.00
2023-03-04T08:02:37.450Z,4.00
2023-03-04T08:05:34.984Z,4.10
2023-03-04T08:08:14.969Z,4.10
2023-03-04T08:13:49.300Z,4.20
2023-03-04T08:16:27.043Z,4.20
2023-03-04T08:19:21.952Z,4.30
2023-03-04T08:25:11.634Z,4.40
2023-03-04T08:27:45.721Z,4.40
2023-03-04T08:30:15.315Z,4.40
2023-03-04T08:32:44.072Z,4.40
2023-03-04T08:35:12.912Z,4.50
2023-03-04T08:37:41.873Z,4.60
2023-03-04T08:40:13.400Z,4.60
2023-03-04T08:45:33.233Z,4.60
2023-03-04T08:48:01.889Z,4.70
2023-03-04T08:50:30.993Z,4.70
2023-03-04T08:53:01.382Z,4.80
2023-03-04T08:55:31.642Z,4.90
2023-03-04T08:58:00.129Z,5.00
2023-03-04T09:00:29.110Z,5.00
2023-03-04T09:02:57.993Z,5.10
2023-03-04T09:05:26.812Z,5.10
2023-03-04T09:07:56.116Z,5.10
2023-03-04T09:10:24.943Z,5.20
2023-03-04T09:13:03.640Z,5.10
2023-03-04T09:15:32.424Z,5.20
2023-03-04T09:18:08.274Z,5.20
2023-03-04T09:20:37.406Z,5.20
2023-03-04T09:23:06.025Z,5.20
2023-03-04T09:25:34.995Z,5.20
2023-03-04T09:28:06.534Z,5.30
2023-03-04T09:30:35.313Z,5.30
2023-03-04T09:33:04.423Z,5.30
2023-03-04T09:35:33.245Z,5.30
2023-03-04T09:38:02.353Z,5.30
2023-03-04T09:40:32.746Z,5.30
2023-03-04T09:43:04.278Z,5.30
2023-03-04T09:45:37.385Z,5.30
2023-03-04T09:48:07.805Z,5.30
2023-03-04T09:50:40.754Z,5.30
2023-03-04T09:53:15.163Z,5.50
2023-03-04T09:55:47.956Z,5.30
2023-03-04T09:58:22.350Z,5.40
2023-03-04T10:00:57.417Z,5.50
2023-03-04T10:03:28.022Z,5.50
2023-03-04T10:05:57.560Z,5.50
2023-03-04T10:08:33.714Z,5.60
2023-03-04T10:11:03.471Z,5.60
2023-03-04T10:13:37.272Z,5.60
2023-03-04T10:16:08.818Z,5.70
2023-03-04T10:18:39.470Z,5.70
2023-03-04T10:21:15.460Z,5.80
2023-03-04T10:23:44.272Z,5.80
2023-03-04T10:26:15.463Z,5.80
2023-03-04T10:28:44.585Z,5.90
2023-03-04T10:31:18.909Z,5.90
2023-03-04T10:33:48.107Z,5.90
2023-03-04T10:36:27.157Z,5.90
2023-03-04T10:38:56.580Z,5.90
2023-03-04T10:44:18.977Z,5.90
2023-03-04T10:46:50.179Z,5.90
2023-03-04T10:49:20.093Z,5.90
2023-03-04T10:51:50.655Z,5.90
2023-03-04T10:54:23.941Z,5.90
2023-03-04T10:56:57.695Z,5.90
2023-03-04T10:59:34.226Z,6.00
2023-03-04T11:02:13.201Z,6.10
2023-03-04T11:04:41.872Z,6.10
2023-03-04T11:07:11.775Z,6.20
2023-03-04T11:09:41.210Z,6.20
2023-03-04T11:12:13.862Z,6.20
2023-03-04T11:14:45.209Z,6.20
2023-03-04T11:17:27.287Z,6.20
2023-03-04T11:19:59.288Z,6.20
2023-03-04T11:22:29.383Z,6.30
2023-03-04T11:25:01.852Z,6.30
2023-03-04T11:27:36.396Z,6.20
2023-03-04T11:30:11.925Z,6.20
2023-03-04T11:32:45.757Z,6.10
2023-03-04T11:35:19.934Z,6.10
2023-03-04T11:37:53.058Z,6.20
2023-03-04T11:40:27.787Z,6.20
2023-03-04T11:43:00.106Z,6.30
2023-03-04T11:45:34.093Z,6.40
2023-03-04T11:48:10.856Z,6.40
2023-03-04T11:50:46.026Z,6.50
2023-03-04T11:53:41.558Z,6.50
2023-03-04T11:56:15.003Z,6.50
2023-03-04T11:59:00.129Z,6.50
2023-03-04T12:01:39.484Z,6.60
2023-03-04T12:04:32.146Z,6.60
2023-03-04T12:07:11.162Z,6.60
2023-03-04T12:09:44.581Z,6.70
2023-03-04T12:12:28.116Z,6.60
2023-03-04T12:15:03.976Z,6.70
2023-03-04T12:17:56.433Z,6.70
2023-03-04T12:20:32.774Z,6.60
2023-03-04T12:23:08.773Z,6.80
2023-03-04T12:25:43.156Z,6.80
2023-03-04T12:28:22.503Z,6.80
2023-03-04T12:30:59.002Z,6.80
2023-03-04T12:33:50.546Z,6.80
2023-03-04T12:36:25.070Z,6.90
2023-03-04T12:39:01.069Z,6.90
2023-03-04T12:41:34.833Z,7.00
2023-03-04T12:44:11.004Z,7.00
2023-03-04T12:46:44.461Z,6.90
2023-03-04T12:49:26.662Z,6.90
2023-03-04T12:51:59.783Z,6.90
2023-03-04T12:54:34.032Z,7.00
2023-03-04T12:57:04.435Z,7.00
2023-03-04T12:59:36.593Z,7.00
2023-03-04T13:02:13.275Z,7.00
2023-03-04T13:04:47.468Z,7.10
2023-03-04T13:07:21.711Z,7.30
2023-03-04T13:09:54.729Z,7.30
2023-03-04T13:12:50.382Z,7.30
2023-03-04T13:15:33.628Z,7.00
2023-03-04T13:18:04.611Z,6.80
2023-03-04T13:20:41.236Z,6.80
2023-03-04T13:23:26.031Z,6.80
2023-03-04T13:26:18.508Z,6.90
2023-03-04T13:28:47.472Z,7.00
2023-03-04T13:31:28.702Z,7.00
2023-03-04T13:34:01.246Z,7.00
2023-03-04T13:37:01.540Z,7.10
2023-03-04T13:39:39.632Z,7.00
2023-03-04T13:42:26.671Z,7.10
2023-03-04T13:45:00.915Z,7.10
2023-03-04T13:47:35.471Z,7.20
2023-03-04T13:50:19.150Z,7.20
2023-03-04T13:52:48.113Z,7.20
2023-03-04T13:55:41.248Z,7.10
2023-03-04T13:58:17.689Z,7.10
2023-03-04T14:00:52.006Z,7.10
2023-03-04T14:03:25.424Z,7.10
2023-03-04T14:06:18.501Z,7.10
2023-03-04T14:08:50.836Z,7.00
2023-03-04T14:11:24.879Z,7.00
2023-03-04T14:13:54.045Z,7.00
2023-03-04T14:16:25.774Z,6.90
2023-03-04T14:19:01.880Z,6.80
2023-03-04T14:21:31.140Z,6.80
2023-03-04T14:24:06.181Z,6.90
2023-03-04T14:26:35.323Z,6.80
2023-03-04T14:29:04.591Z,6.80
2023-03-04T14:32:15.835Z,6.90
2023-03-04T14:34:46.023Z,6.80
2023-03-04T14:37:23.023Z,6.90
2023-03-04T14:39:52.440Z,6.90
2023-03-04T14:42:23.151Z,6.90
2023-03-04T14:44:52.933Z,6.90
2023-03-04T14:47:22.662Z,6.80
2023-03-04T14:49:53.078Z,6.80
2023-03-04T14:52:35.194Z,6.70
2023-03-04T14:55:11.367Z,6.60
2023-03-04T14:57:40.915Z,6.60
2023-03-04T15:00:35.957Z,6.60
2023-03-04T15:03:05.774Z,6.60
2023-03-04T15:05:38.399Z,6.60
2023-03-04T15:08:08.305Z,6.50
2023-03-04T15:10:38.717Z,6.40
2023-03-04T15:13:11.585Z,6.50
2023-03-04T15:15:43.263Z,6.50
2023-03-04T15:18:26.693Z,6.50
2023-03-04T15:20:58.151Z,6.50
2023-03-04T15:23:26.970Z,6.60
2023-03-04T15:25:56.686Z,6.60
2023-03-04T15:28:27.103Z,6.60
2023-03-04T15:30:55.924Z,6.50
2023-03-04T15:33:26.151Z,6.50
2023-03-04T15:35:59.117Z,6.50
2023-03-04T15:38:28.431Z,6.40
2023-03-04T15:40:58.972Z,6.40
2023-03-04T15:43:27.478Z,6.40
2023-03-04T15:45:56.644Z,6.40
2023-03-04T15:48:25.612Z,6.30
2023-03-04T15:50:59.070Z,6.30
2023-03-04T15:53:30.589Z,6.30
2023-03-04T15:56:00.172Z,6.30
2023-03-04T15:58:55.909Z,6.30
2023-03-04T16:01:25.619Z,6.30
2023-03-04T16:03:55.311Z,6.30
2023-03-04T16:06:27.346Z,6.30
2023-03-04T16:08:56.801Z,6.30
2023-03-04T16:11:27.172Z,6.20
2023-03-04T16:13:59.179Z,6.20
2023-03-04T16:16:28.310Z,6.20
2023-03-04T16:18:57.579Z,6.20
2023-03-04T16:21:28.975Z,6.20
2023-03-04T16:23:58.849Z,6.10
2023-03-04T16:26:28.308Z,6.00
2023-03-04T16:28:56.788Z,5.90
2023-03-04T16:31:25.311Z,5.80
2023-03-04T16:33:54.429Z,5.80
2023-03-04T16:36:29.305Z,5.80
2023-03-04T16:39:22.104Z,5.70
2023-03-04T16:41:53.890Z,5.70
2023-03-04T16:44:22.856Z,5.70
2023-03-04T16:46:51.839Z,5.80
2023-03-04T16:49:21.409Z,5.70
2023-03-04T16:51:51.860Z,5.80
2023-03-04T16:54:25.422Z,5.70
2023-03-04T16:56:55.772Z,5.70
2023-03-04T16:59:24.775Z,5.70
2023-03-04T17:01:54.623Z,5.60
2023-03-04T17:04:24.668Z,5.60
2023-03-04T17:06:54.456Z,5.70
2023-03-04T17:09:23.368Z,5.60
2023-03-04T17:11:54.211Z,5.60
2023-03-04T17:14:24.928Z,5.50
2023-03-04T17:16:54.369Z,5.50
2023-03-04T17:19:26.090Z,5.50
2023-03-04T17:21:55.806Z,5.50
2023-03-04T17:24:24.635Z,5.50
2023-03-04T17:26:58.698Z,5.60
2023-03-04T17:32:25.203Z,5.50
2023-03-04T17:41:03.074Z,5.40
2023-03-04T17:43:49.101Z,5.40
2023-03-04T17:46:45.522Z,5.30
2023-03-04T17:49:40.460Z,5.30
2023-03-04T17:52:16.939Z,5.30
2023-03-04T17:57:42.769Z,5.20
2023-03-04T18:00:17.158Z,5.30
2023-03-04T18:03:04.661Z,5.20
2023-03-04T18:05:38.876Z,5.30
2023-03-04T18:08:18.372Z,5.20
2023-03-04T18:10:59.430Z,5.20
2023-03-04T18:13:33.123Z,5.10
2023-03-04T18:18:53.588Z,5.10
2023-03-04T18:24:46.284Z,5.00
2023-03-04T18:30:58.146Z,4.90
2023-03-04T18:33:43.392Z,5.00
2023-03-04T18:36:21.011Z,4.90
2023-03-04T18:39:12.716Z,4.60
2023-03-04T18:41:56.762Z,4.80
2023-03-04T18:44:51.605Z,4.90
2023-03-04T18:48:01.044Z,4.80
2023-03-04T18:53:42.770Z,4.80
2023-03-04T18:56:16.040Z,4.80
2023-03-04T18:58:46.678Z,4.80
2023-03-04T19:01:26.615Z,4.90
2023-03-04T19:04:26.597Z,4.90
2023-03-04T19:07:13.096Z,4.80
2023-03-04T19:10:04.331Z,4.90
2023-03-04T19:12:51.723Z,5.00
2023-03-04T19:15:26.604Z,5.00
2023-03-04T19:21:10.046Z,4.90
2023-03-04T19:23:45.005Z,5.00
2023-03-04T19:26:44.264Z,5.00
2023-03-04T19:29:45.799Z,5.10
2023-03-04T19:32:17.996Z,5.00
2023-03-04T19:34:55.175Z,4.90
2023-03-04T19:37:34.166Z,4.90
2023-03-04T19:40:31.182Z,4.80
2023-03-04T19:43:28.514Z,4.70
2023-03-04T19:46:07.807Z,4.70
2023-03-04T19:48:51.553Z,4.60
2023-03-04T19:54:26.604Z,4.60
2023-03-04T20:00:07.318Z,4.50
2023-03-04T20:02:52.204Z,4.40
2023-03-04T20:05:36.437Z,4.50
2023-03-04T20:08:13.475Z,4.50
2023-03-04T20:13:48.021Z,4.40
2023-03-04T20:16:47.391Z,4.50
2023-03-04T20:19:36.719Z,4.50
2023-03-04T20:22:21.470Z,4.40
2023-03-04T20:24:59.794Z,4.40
2023-03-04T20:27:30.766Z,4.40
2023-03-04T20:30:25.971Z,4.30
2023-03-04T20:39:32.037Z,4.30
2023-03-04T20:45:23.098Z,4.30
2023-03-04T20:47:57.746Z,4.30
2023-03-04T20:50:32.834Z,4.30
2023-03-04T20:53:17.940Z,4.30
2023-03-04T20:59:05.499Z,4.40
2023-03-04T21:10:55.732Z,4.30
2023-03-04T21:13:35.559Z,4.20
2023-03-04T21:16:09.199Z,4.20
2023-03-04T21:21:55.560Z,4.20
2023-03-04T21:24:44.011Z,4.20
2023-03-04T21:27:32.359Z,4.20
2023-03-04T21:30:17.326Z,3.10
2023-03-04T21:32:58.247Z,4.20
2023-03-04T21:35:51.096Z,4.20
2023-03-04T21:38:29.165Z,4.20
2023-03-04T21:41:16.358Z,4.20
2023-03-04T21:44:02.608Z,4.10
2023-03-04T21:46:45.090Z,4.20
2023-03-04T21:49:37.729Z,4.10
2023-03-04T21:52:28.052Z,4.10
2023-03-04T21:58:39.065Z,4.10
2023-03-04T22:01:20.531Z,4.10
2023-03-04T22:04:11.255Z,4.20
2023-03-04T22:06:55.472Z,4.20
2023-03-04T22:09:42.954Z,4.10
2023-03-04T22:12:53.004Z,4.10
2023-03-04T22:15:54.684Z,4.10
2023-03-04T22:18:39.005Z,4.10
2023-03-04T22:21:23.319Z,4.00
2023-03-04T22:24:38.986Z,4.10
2023-03-04T22:27:13.207Z,4.00
2023-03-04T22:30:03.198Z,4.00
2023-03-04T22:32:47.788Z,3.90
2023-03-04T22:35:31.901Z,3.90
2023-03-04T22:41:20.976Z,3.90
2023-03-04T22:44:08.576Z,4.00
2023-03-04T22:47:02.294Z,3.90
2023-03-04T22:49:46.362Z,4.00
2023-03-04T22:52:40.838Z,4.10
2023-03-04T22:55:19.113Z,4.00
2023-03-04T22:57:53.044Z,4.00
2023-03-04T23:00:27.853Z,3.90
2023-03-04T23:03:10.967Z,3.90
2023-03-04T23:05:54.411Z,3.90
2023-03-04T23:08:44.357Z,3.90
2023-03-04T23:11:32.453Z,3.80
2023-03-04T23:14:14.378Z,3.80
2023-03-04T23:16:57.039Z,3.90
2023-03-04T23:19:40.436Z,3.90
2023-03-04T23:22:19.361Z,4.00
2023-03-04T23:25:06.745Z,4.00
2023-03-04T23:28:25.727Z,3.90
2023-03-04T23:31:18.784Z,3.90
2023-03-04T23:34:17.177Z,3.90
2023-03-04T23:43:38.384Z,3.80
2023-03-04T23:46:15.146Z,3.80
2023-03-04T23:49:12.318Z,3.70
2023-03-04T23:51:56.660Z,3.60
2023-03-04T23:54:46.164Z,3.60
